sensor_id;sensor_type;location;lat;lon;timestamp;P1;durP1;ratioP1;P2;durP2;ratioP2
59302;SDS011;45074;52.764;6.896;2022-11-20T00:00:54;57.70;;;36.55;;
59302;SDS011;45074;52.764;6.896;2022-11-20T00:03:20;55.55;;;37.03;;
59302;SDS011;45074;52.764;6.896;2022-11-20T00:05:46;53.30;;;32.97;;
59302;SDS011;45074;52.764;6.896;2022-11-20T00:08:12;48.13;;;31.48;;
59302;SDS011;45074;52.764;6.896;2022-11-20T00:10:39;44.80;;;30.50;;
59302;SDS011;45074;52.764;6.896;2022-11-20T00:13:05;41.08;;;27.75;;
59302;SDS011;45074;52.764;6.896;2022-11-20T00:15:31;40.20;;;27.23;;
59302;SDS011;45074;52.764;6.896;2022-11-20T00:17:57;41.20;;;27.23;;
59302;SDS011;45074;52.764;6.896;2022-11-20T00:20:23;38.10;;;25.10;;
59302;SDS011;45074;52.764;6.896;2022-11-20T00:22:49;39.13;;;25.75;;
59302;SDS011;45074;52.764;6.896;2022-11-20T00:25:15;40.33;;;28.05;;
59302;SDS011;45074;52.764;6.896;2022-11-20T00:27:41;45.28;;;28.05;;
59302;SDS011;45074;52.764;6.896;2022-11-20T00:30:07;42.75;;;27.98;;
59302;SDS011;45074;52.764;6.896;2022-11-20T00:32:33;38.88;;;26.58;;
59302;SDS011;45074;52.764;6.896;2022-11-20T00:34:59;43.33;;;28.38;;
59302;SDS011;45074;52.764;6.896;2022-11-20T00:37:25;42.70;;;28.35;;
59302;SDS011;45074;52.764;6.896;2022-11-20T00:39:51;34.03;;;21.75;;
59302;SDS011;45074;52.764;6.896;2022-11-20T00:42:17;33.28;;;20.98;;
59302;SDS011;45074;52.764;6.896;2022-11-20T00:44:43;34.63;;;21.30;;
59302;SDS011;45074;52.764;6.896;2022-11-20T00:47:09;28.92;;;19.85;;
59302;SDS011;45074;52.764;6.896;2022-11-20T00:49:35;30.58;;;18.17;;
59302;SDS011;45074;52.764;6.896;2022-11-20T00:52:01;26.30;;;15.88;;
59302;SDS011;45074;52.764;6.896;2022-11-20T00:54:27;26.02;;;16.33;;
59302;SDS011;45074;52.764;6.896;2022-11-20T00:56:53;26.58;;;16.50;;
59302;SDS011;45074;52.764;6.896;2022-11-20T00:59:19;24.63;;;15.38;;
59302;SDS011;45074;52.764;6.896;2022-11-20T01:01:45;23.45;;;13.93;;
59302;SDS011;45074;52.764;6.896;2022-11-20T01:04:11;23.13;;;14.23;;
59302;SDS011;45074;52.764;6.896;2022-11-20T01:06:38;22.40;;;14.15;;
59302;SDS011;45074;52.764;6.896;2022-11-20T01:09:09;22.17;;;14.95;;
59302;SDS011;45074;52.764;6.896;2022-11-20T01:11:37;24.70;;;14.60;;
59302;SDS011;45074;52.764;6.896;2022-11-20T01:14:07;24.02;;;15.13;;
59302;SDS011;45074;52.764;6.896;2022-11-20T01:16:36;24.60;;;14.73;;
59302;SDS011;45074;52.764;6.896;2022-11-20T01:19:06;21.27;;;14.18;;
59302;SDS011;45074;52.764;6.896;2022-11-20T01:21:35;22.40;;;13.95;;
59302;SDS011;45074;52.764;6.896;2022-11-20T01:24:03;23.10;;;13.80;;
59302;SDS011;45074;52.764;6.896;2022-11-20T01:26:32;22.80;;;13.93;;
59302;SDS011;45074;52.764;6.896;2022-11-20T01:29:00;23.60;;;13.80;;
59302;SDS011;45074;52.764;6.896;2022-11-20T01:31:27;21.88;;;14.30;;
59302;SDS011;45074;52.764;6.896;2022-11-20T01:33:55;23.15;;;14.50;;
59302;SDS011;45074;52.764;6.896;2022-11-20T01:36:23;21.95;;;14.50;;
59302;SDS011;45074;52.764;6.896;2022-11-20T01:38:52;21.10;;;13.45;;
59302;SDS011;45074;52.764;6.896;2022-11-20T01:41:19;25.20;;;15.15;;
59302;SDS011;45074;52.764;6.896;2022-11-20T01:44:04;23.23;;;13.98;;
59302;SDS011;45074;52.764;6.896;2022-11-20T01:46:31;25.52;;;14.88;;
59302;SDS011;45074;52.764;6.896;2022-11-20T01:49:00;26.80;;;16.10;;
59302;SDS011;45074;52.764;6.896;2022-11-20T01:52:03;26.33;;;14.67;;
59302;SDS011;45074;52.764;6.896;2022-11-20T01:54:25;24.73;;;14.50;;
59302;SDS011;45074;52.764;6.896;2022-11-20T01:56:59;23.75;;;14.50;;
59302;SDS011;45074;52.764;6.896;2022-11-20T01:59:25;24.80;;;15.05;;
59302;SDS011;45074;52.764;6.896;2022-11-20T02:01:53;24.58;;;15.18;;
59302;SDS011;45074;52.764;6.896;2022-11-20T02:04:19;26.50;;;15.70;;
59302;SDS011;45074;52.764;6.896;2022-11-20T02:06:47;24.80;;;15.90;;
59302;SDS011;45074;52.764;6.896;2022-11-20T02:09:21;24.52;;;15.25;;
59302;SDS011;45074;52.764;6.896;2022-11-20T02:11:47;23.00;;;15.30;;
59302;SDS011;45074;52.764;6.896;2022-11-20T02:14:13;24.13;;;15.77;;
59302;SDS011;45074;52.764;6.896;2022-11-20T02:16:40;25.42;;;16.00;;
59302;SDS011;45074;52.764;6.896;2022-11-20T02:19:29;27.42;;;15.52;;
59302;SDS011;45074;52.764;6.896;2022-11-20T02:24:32;25.10;;;15.27;;
59302;SDS011;45074;52.764;6.896;2022-11-20T02:26:59;27.95;;;16.40;;
59302;SDS011;45074;52.764;6.896;2022-11-20T02:29:32;27.45;;;16.02;;
59302;SDS011;45074;52.764;6.896;2022-11-20T02:32:04;25.98;;;15.70;;
59302;SDS011;45074;52.764;6.896;2022-11-20T02:34:31;27.67;;;15.98;;
59302;SDS011;45074;52.764;6.896;2022-11-20T02:36:57;30.70;;;16.55;;
59302;SDS011;45074;52.764;6.896;2022-11-20T02:39:24;28.23;;;16.05;;
59302;SDS011;45074;52.764;6.896;2022-11-20T02:41:52;24.65;;;15.35;;
59302;SDS011;45074;52.764;6.896;2022-11-20T02:44:19;25.50;;;14.48;;
59302;SDS011;45074;52.764;6.896;2022-11-20T02:46:45;24.42;;;14.88;;
59302;SDS011;45074;52.764;6.896;2022-11-20T02:49:11;25.02;;;14.10;;
59302;SDS011;45074;52.764;6.896;2022-11-20T02:51:37;25.27;;;14.63;;
59302;SDS011;45074;52.764;6.896;2022-11-20T02:54:03;26.13;;;15.10;;
59302;SDS011;45074;52.764;6.896;2022-11-20T02:56:29;24.98;;;15.25;;
59302;SDS011;45074;52.764;6.896;2022-11-20T02:58:55;23.25;;;13.98;;
59302;SDS011;45074;52.764;6.896;2022-11-20T03:01:21;24.27;;;14.45;;
59302;SDS011;45074;52.764;6.896;2022-11-20T03:03:47;23.60;;;14.13;;
59302;SDS011;45074;52.764;6.896;2022-11-20T03:06:14;22.48;;;14.35;;
59302;SDS011;45074;52.764;6.896;2022-11-20T03:08:40;22.10;;;13.32;;
59302;SDS011;45074;52.764;6.896;2022-11-20T03:11:07;21.52;;;13.00;;
59302;SDS011;45074;52.764;6.896;2022-11-20T03:13:33;22.15;;;13.35;;
59302;SDS011;45074;52.764;6.896;2022-11-20T03:16:04;21.92;;;13.63;;
59302;SDS011;45074;52.764;6.896;2022-11-20T03:18:34;22.90;;;13.73;;
59302;SDS011;45074;52.764;6.896;2022-11-20T03:21:00;21.85;;;13.05;;
59302;SDS011;45074;52.764;6.896;2022-11-20T03:23:28;21.30;;;13.05;;
59302;SDS011;45074;52.764;6.896;2022-11-20T03:25:56;21.73;;;13.73;;
59302;SDS011;45074;52.764;6.896;2022-11-20T03:28:22;19.67;;;12.50;;
59302;SDS011;45074;52.764;6.896;2022-11-20T03:30:47;22.23;;;13.20;;
59302;SDS011;45074;52.764;6.896;2022-11-20T03:33:13;20.67;;;12.60;;
59302;SDS011;45074;52.764;6.896;2022-11-20T03:35:39;23.05;;;13.48;;
59302;SDS011;45074;52.764;6.896;2022-11-20T03:38:05;21.75;;;13.07;;
59302;SDS011;45074;52.764;6.896;2022-11-20T03:40:31;20.17;;;12.88;;
59302;SDS011;45074;52.764;6.896;2022-11-20T03:42:57;20.95;;;12.85;;
59302;SDS011;45074;52.764;6.896;2022-11-20T03:45:23;22.17;;;13.02;;
59302;SDS011;45074;52.764;6.896;2022-11-20T03:47:49;21.67;;;12.52;;
59302;SDS011;45074;52.764;6.896;2022-11-20T03:50:15;20.15;;;12.57;;
59302;SDS011;45074;52.764;6.896;2022-11-20T03:52:41;20.33;;;12.88;;
59302;SDS011;45074;52.764;6.896;2022-11-20T03:55:07;20.38;;;12.88;;
59302;SDS011;45074;52.764;6.896;2022-11-20T03:57:33;22.20;;;12.70;;
59302;SDS011;45074;52.764;6.896;2022-11-20T03:59:59;21.38;;;12.55;;
59302;SDS011;45074;52.764;6.896;2022-11-20T04:02:25;20.40;;;13.00;;
59302;SDS011;45074;52.764;6.896;2022-11-20T04:04:51;21.35;;;13.55;;
59302;SDS011;45074;52.764;6.896;2022-11-20T04:07:17;20.42;;;12.82;;
59302;SDS011;45074;52.764;6.896;2022-11-20T04:09:42;21.42;;;12.25;;
59302;SDS011;45074;52.764;6.896;2022-11-20T04:12:08;19.85;;;12.25;;
59302;SDS011;45074;52.764;6.896;2022-11-20T04:14:34;19.25;;;12.63;;
59302;SDS011;45074;52.764;6.896;2022-11-20T04:17:01;22.08;;;13.25;;
59302;SDS011;45074;52.764;6.896;2022-11-20T04:19:27;18.83;;;12.18;;
59302;SDS011;45074;52.764;6.896;2022-11-20T04:21:53;20.90;;;13.18;;
59302;SDS011;45074;52.764;6.896;2022-11-20T04:24:19;21.98;;;12.85;;
59302;SDS011;45074;52.764;6.896;2022-11-20T04:26:45;20.48;;;12.52;;
59302;SDS011;45074;52.764;6.896;2022-11-20T04:29:11;21.20;;;12.45;;
59302;SDS011;45074;52.764;6.896;2022-11-20T04:31:37;21.55;;;12.63;;
59302;SDS011;45074;52.764;6.896;2022-11-20T04:34:04;21.58;;;12.55;;
59302;SDS011;45074;52.764;6.896;2022-11-20T04:36:31;19.30;;;12.13;;
59302;SDS011;45074;52.764;6.896;2022-11-20T04:38:57;21.17;;;12.20;;
59302;SDS011;45074;52.764;6.896;2022-11-20T04:41:26;18.92;;;12.05;;
59302;SDS011;45074;52.764;6.896;2022-11-20T04:43:57;19.85;;;12.88;;
59302;SDS011;45074;52.764;6.896;2022-11-20T04:46:27;22.27;;;12.25;;
59302;SDS011;45074;52.764;6.896;2022-11-20T04:48:53;19.85;;;12.35;;
59302;SDS011;45074;52.764;6.896;2022-11-20T04:51:19;21.50;;;13.30;;
59302;SDS011;45074;52.764;6.896;2022-11-20T04:53:45;19.15;;;12.40;;
59302;SDS011;45074;52.764;6.896;2022-11-20T04:56:11;20.08;;;12.25;;
59302;SDS011;45074;52.764;6.896;2022-11-20T04:58:38;19.23;;;11.95;;
59302;SDS011;45074;52.764;6.896;2022-11-20T05:01:05;19.98;;;12.15;;
59302;SDS011;45074;52.764;6.896;2022-11-20T05:03:35;19.60;;;11.63;;
59302;SDS011;45074;52.764;6.896;2022-11-20T05:06:02;21.65;;;12.23;;
59302;SDS011;45074;52.764;6.896;2022-11-20T05:08:29;19.65;;;12.20;;
59302;SDS011;45074;52.764;6.896;2022-11-20T05:10:59;20.45;;;12.23;;
59302;SDS011;45074;52.764;6.896;2022-11-20T05:13:45;20.05;;;12.70;;
59302;SDS011;45074;52.764;6.896;2022-11-20T05:16:15;19.75;;;12.32;;
59302;SDS011;45074;52.764;6.896;2022-11-20T05:18:45;22.05;;;13.13;;
59302;SDS011;45074;52.764;6.896;2022-11-20T05:21:12;22.55;;;12.52;;
59302;SDS011;45074;52.764;6.896;2022-11-20T05:23:38;19.85;;;12.02;;
59302;SDS011;45074;52.764;6.896;2022-11-20T05:26:05;20.05;;;12.15;;
59302;SDS011;45074;52.764;6.896;2022-11-20T05:28:32;18.23;;;11.50;;
59302;SDS011;45074;52.764;6.896;2022-11-20T05:33:32;21.08;;;12.73;;
59302;SDS011;45074;52.764;6.896;2022-11-20T05:35:59;20.00;;;12.57;;
59302;SDS011;45074;52.764;6.896;2022-11-20T05:38:24;19.75;;;12.80;;
59302;SDS011;45074;52.764;6.896;2022-11-20T05:40:50;19.45;;;12.63;;
59302;SDS011;45074;52.764;6.896;2022-11-20T05:43:16;20.23;;;13.15;;
59302;SDS011;45074;52.764;6.896;2022-11-20T05:45:42;18.50;;;12.00;;
59302;SDS011;45074;52.764;6.896;2022-11-20T05:48:08;20.55;;;12.52;;
59302;SDS011;45074;52.764;6.896;2022-11-20T05:50:34;20.38;;;12.90;;
59302;SDS011;45074;52.764;6.896;2022-11-20T05:53:00;18.92;;;11.70;;
59302;SDS011;45074;52.764;6.896;2022-11-20T05:55:27;21.08;;;12.93;;
59302;SDS011;45074;52.764;6.896;2022-11-20T05:57:53;20.05;;;12.48;;
59302;SDS011;45074;52.764;6.896;2022-11-20T06:00:19;19.60;;;12.20;;
59302;SDS011;45074;52.764;6.896;2022-11-20T06:02:45;19.88;;;11.07;;
59302;SDS011;45074;52.764;6.896;2022-11-20T06:05:11;19.98;;;11.68;;
59302;SDS011;45074;52.764;6.896;2022-11-20T06:07:37;19.08;;;11.77;;
59302;SDS011;45074;52.764;6.896;2022-11-20T06:10:03;21.77;;;12.73;;
59302;SDS011;45074;52.764;6.896;2022-11-20T06:12:31;20.15;;;12.57;;
59302;SDS011;45074;52.764;6.896;2022-11-20T06:14:57;20.05;;;12.27;;
59302;SDS011;45074;52.764;6.896;2022-11-20T06:17:24;18.40;;;11.35;;
59302;SDS011;45074;52.764;6.896;2022-11-20T06:19:50;20.42;;;12.20;;
59302;SDS011;45074;52.764;6.896;2022-11-20T06:22:16;19.13;;;12.10;;
59302;SDS011;45074;52.764;6.896;2022-11-20T06:24:42;19.15;;;12.05;;
59302;SDS011;45074;52.764;6.896;2022-11-20T06:27:08;20.15;;;12.45;;
59302;SDS011;45074;52.764;6.896;2022-11-20T06:29:33;20.50;;;12.77;;
59302;SDS011;45074;52.764;6.896;2022-11-20T06:32:00;20.55;;;12.77;;
59302;SDS011;45074;52.764;6.896;2022-11-20T06:34:26;18.55;;;11.85;;
59302;SDS011;45074;52.764;6.896;2022-11-20T06:36:52;19.83;;;12.02;;
59302;SDS011;45074;52.764;6.896;2022-11-20T06:39:18;19.63;;;12.32;;
59302;SDS011;45074;52.764;6.896;2022-11-20T06:41:43;18.70;;;12.40;;
59302;SDS011;45074;52.764;6.896;2022-11-20T06:44:09;21.10;;;12.35;;
59302;SDS011;45074;52.764;6.896;2022-11-20T06:46:36;21.27;;;13.15;;
59302;SDS011;45074;52.764;6.896;2022-11-20T06:49:02;20.23;;;12.23;;
59302;SDS011;45074;52.764;6.896;2022-11-20T06:51:28;21.15;;;12.98;;
59302;SDS011;45074;52.764;6.896;2022-11-20T06:53:54;20.33;;;12.23;;
59302;SDS011;45074;52.764;6.896;2022-11-20T06:56:19;20.02;;;12.23;;
59302;SDS011;45074;52.764;6.896;2022-11-20T06:58:45;18.73;;;11.90;;
59302;SDS011;45074;52.764;6.896;2022-11-20T07:01:12;18.58;;;11.80;;
59302;SDS011;45074;52.764;6.896;2022-11-20T07:03:39;20.48;;;12.02;;
59302;SDS011;45074;52.764;6.896;2022-11-20T07:06:05;19.80;;;12.55;;
59302;SDS011;45074;52.764;6.896;2022-11-20T07:08:32;22.00;;;12.30;;
59302;SDS011;45074;52.764;6.896;2022-11-20T07:10:59;19.67;;;12.90;;
59302;SDS011;45074;52.764;6.896;2022-11-20T07:13:26;20.85;;;12.70;;
59302;SDS011;45074;52.764;6.896;2022-11-20T07:15:53;19.98;;;13.18;;
59302;SDS011;45074;52.764;6.896;2022-11-20T07:18:19;22.65;;;13.30;;
59302;SDS011;45074;52.764;6.896;2022-11-20T07:20:45;20.35;;;13.27;;
59302;SDS011;45074;52.764;6.896;2022-11-20T07:23:11;19.05;;;12.18;;
59302;SDS011;45074;52.764;6.896;2022-11-20T07:25:37;20.25;;;12.48;;
59302;SDS011;45074;52.764;6.896;2022-11-20T07:28:03;20.92;;;12.43;;
59302;SDS011;45074;52.764;6.896;2022-11-20T07:30:28;21.25;;;13.00;;
59302;SDS011;45074;52.764;6.896;2022-11-20T07:32:55;21.20;;;13.40;;
59302;SDS011;45074;52.764;6.896;2022-11-20T07:35:22;29.52;;;18.35;;
59302;SDS011;45074;52.764;6.896;2022-11-20T07:37:48;25.00;;;16.30;;
59302;SDS011;45074;52.764;6.896;2022-11-20T07:40:15;21.35;;;13.35;;
59302;SDS011;45074;52.764;6.896;2022-11-20T07:42:47;20.15;;;12.32;;
59302;SDS011;45074;52.764;6.896;2022-11-20T07:45:18;19.58;;;12.23;;
59302;SDS011;45074;52.764;6.896;2022-11-20T07:47:44;20.67;;;13.05;;
59302;SDS011;45074;52.764;6.896;2022-11-20T07:50:10;20.40;;;12.50;;
59302;SDS011;45074;52.764;6.896;2022-11-20T07:52:36;19.60;;;12.60;;
59302;SDS011;45074;52.764;6.896;2022-11-20T07:55:03;19.77;;;12.35;;
59302;SDS011;45074;52.764;6.896;2022-11-20T07:57:29;19.88;;;12.55;;
59302;SDS011;45074;52.764;6.896;2022-11-20T07:59:55;20.52;;;12.52;;
59302;SDS011;45074;52.764;6.896;2022-11-20T08:02:21;21.10;;;13.02;;
59302;SDS011;45074;52.764;6.896;2022-11-20T08:04:46;21.60;;;13.77;;
59302;SDS011;45074;52.764;6.896;2022-11-20T08:07:12;20.42;;;13.32;;
59302;SDS011;45074;52.764;6.896;2022-11-20T08:09:38;19.92;;;12.88;;
59302;SDS011;45074;52.764;6.896;2022-11-20T08:12:04;21.58;;;13.48;;
59302;SDS011;45074;52.764;6.896;2022-11-20T08:14:49;20.20;;;12.75;;
59302;SDS011;45074;52.764;6.896;2022-11-20T08:17:15;20.48;;;12.88;;
59302;SDS011;45074;52.764;6.896;2022-11-20T08:19:41;23.48;;;13.77;;
59302;SDS011;45074;52.764;6.896;2022-11-20T08:22:07;23.00;;;13.40;;
59302;SDS011;45074;52.764;6.896;2022-11-20T08:24:33;19.83;;;13.05;;
59302;SDS011;45074;52.764;6.896;2022-11-20T08:26:59;22.23;;;14.07;;
59302;SDS011;45074;52.764;6.896;2022-11-20T08:29:26;21.02;;;12.98;;
59302;SDS011;45074;52.764;6.896;2022-11-20T08:31:52;20.13;;;12.88;;
59302;SDS011;45074;52.764;6.896;2022-11-20T08:34:18;19.40;;;12.68;;
59302;SDS011;45074;52.764;6.896;2022-11-20T08:36:44;19.98;;;12.82;;
59302;SDS011;45074;52.764;6.896;2022-11-20T08:39:11;19.65;;;12.32;;
59302;SDS011;45074;52.764;6.896;2022-11-20T08:41:37;19.27;;;12.68;;
59302;SDS011;45074;52.764;6.896;2022-11-20T08:44:04;20.08;;;12.65;;
59302;SDS011;45074;52.764;6.896;2022-11-20T08:46:33;20.25;;;12.52;;
59302;SDS011;45074;52.764;6.896;2022-11-20T08:49:04;18.98;;;12.38;;
59302;SDS011;45074;52.764;6.896;2022-11-20T08:51:31;20.02;;;12.55;;
59302;SDS011;45074;52.764;6.896;2022-11-20T08:53:57;21.67;;;12.43;;
59302;SDS011;45074;52.764;6.896;2022-11-20T08:56:23;20.70;;;12.70;;
59302;SDS011;45074;52.764;6.896;2022-11-20T08:58:50;22.33;;;13.85;;
59302;SDS011;45074;52.764;6.896;2022-11-20T09:01:19;21.40;;;14.52;;
59302;SDS011;45074;52.764;6.896;2022-11-20T09:03:46;20.85;;;13.80;;
59302;SDS011;45074;52.764;6.896;2022-11-20T09:06:12;21.88;;;14.07;;
59302;SDS011;45074;52.764;6.896;2022-11-20T09:08:38;20.50;;;12.45;;
59302;SDS011;45074;52.764;6.896;2022-11-20T09:11:04;18.90;;;12.05;;
59302;SDS011;45074;52.764;6.896;2022-11-20T09:13:31;19.15;;;12.55;;
59302;SDS011;45074;52.764;6.896;2022-11-20T09:16:00;21.48;;;12.63;;
59302;SDS011;45074;52.764;6.896;2022-11-20T09:18:28;18.58;;;11.98;;
59302;SDS011;45074;52.764;6.896;2022-11-20T09:21:00;20.52;;;12.43;;
59302;SDS011;45074;52.764;6.896;2022-11-20T09:23:26;18.58;;;12.02;;
59302;SDS011;45074;52.764;6.896;2022-11-20T09:25:56;19.45;;;12.23;;
59302;SDS011;45074;52.764;6.896;2022-11-20T09:28:25;18.75;;;12.25;;
59302;SDS011;45074;52.764;6.896;2022-11-20T09:30:51;21.02;;;14.13;;
59302;SDS011;45074;52.764;6.896;2022-11-20T09:33:17;19.63;;;12.18;;
59302;SDS011;45074;52.764;6.896;2022-11-20T09:35:43;19.40;;;11.68;;
59302;SDS011;45074;52.764;6.896;2022-11-20T09:38:09;18.42;;;12.10;;
59302;SDS011;45074;52.764;6.896;2022-11-20T09:40:37;18.83;;;11.77;;
59302;SDS011;45074;52.764;6.896;2022-11-20T09:46:14;19.80;;;12.43;;
59302;SDS011;45074;52.764;6.896;2022-11-20T09:51:58;17.95;;;11.75;;
59302;SDS011;45074;52.764;6.896;2022-11-20T09:54:28;20.45;;;12.57;;
59302;SDS011;45074;52.764;6.896;2022-11-20T09:56:59;17.85;;;11.70;;
59302;SDS011;45074;52.764;6.896;2022-11-20T10:01:53;20.08;;;12.13;;
59302;SDS011;45074;52.764;6.896;2022-11-20T10:04:20;18.35;;;11.40;;
59302;SDS011;45074;52.764;6.896;2022-11-20T10:06:49;17.80;;;11.63;;
59302;SDS011;45074;52.764;6.896;2022-11-20T10:09:42;19.00;;;12.25;;
59302;SDS011;45074;52.764;6.896;2022-11-20T10:17:16;19.75;;;12.27;;
59302;SDS011;45074;52.764;6.896;2022-11-20T10:25:46;18.15;;;11.07;;
59302;SDS011;45074;52.764;6.896;2022-11-20T10:31:04;14.05;;;9.55;;
59302;SDS011;45074;52.764;6.896;2022-11-20T10:33:39;14.85;;;9.05;;
59302;SDS011;45074;52.764;6.896;2022-11-20T10:36:14;16.08;;;10.40;;
59302;SDS011;45074;52.764;6.896;2022-11-20T10:38:54;13.38;;;8.90;;
59302;SDS011;45074;52.764;6.896;2022-11-20T10:41:27;12.63;;;7.60;;
59302;SDS011;45074;52.764;6.896;2022-11-20T10:44:12;13.93;;;7.18;;
59302;SDS011;45074;52.764;6.896;2022-11-20T10:47:01;14.73;;;9.10;;
59302;SDS011;45074;52.764;6.896;2022-11-20T10:49:47;14.88;;;9.50;;
59302;SDS011;45074;52.764;6.896;2022-11-20T11:01:02;15.70;;;10.52;;
59302;SDS011;45074;52.764;6.896;2022-11-20T11:03:39;15.98;;;10.23;;
59302;SDS011;45074;52.764;6.896;2022-11-20T11:06:10;15.50;;;9.50;;
59302;SDS011;45074;52.764;6.896;2022-11-20T11:08:58;14.70;;;8.73;;
59302;SDS011;45074;52.764;6.896;2022-11-20T11:11:31;13.30;;;8.15;;
59302;SDS011;45074;52.764;6.896;2022-11-20T11:14:08;13.13;;;7.32;;
59302;SDS011;45074;52.764;6.896;2022-11-20T11:16:40;13.63;;;8.25;;
59302;SDS011;45074;52.764;6.896;2022-11-20T11:19:21;12.15;;;7.63;;
59302;SDS011;45074;52.764;6.896;2022-11-20T11:21:47;14.55;;;8.20;;
59302;SDS011;45074;52.764;6.896;2022-11-20T11:26:51;12.57;;;8.20;;
59302;SDS011;45074;52.764;6.896;2022-11-20T11:29:22;14.90;;;8.57;;
59302;SDS011;45074;52.764;6.896;2022-11-20T11:31:51;13.07;;;8.40;;
59302;SDS011;45074;52.764;6.896;2022-11-20T11:34:32;13.15;;;8.43;;
59302;SDS011;45074;52.764;6.896;2022-11-20T11:36:58;16.10;;;8.48;;
59302;SDS011;45074;52.764;6.896;2022-11-20T11:39:26;13.38;;;8.77;;
59302;SDS011;45074;52.764;6.896;2022-11-20T11:41:53;14.07;;;8.30;;
59302;SDS011;45074;52.764;6.896;2022-11-20T11:44:20;13.73;;;7.40;;
59302;SDS011;45074;52.764;6.896;2022-11-20T11:47:10;13.32;;;8.32;;
59302;SDS011;45074;52.764;6.896;2022-11-20T11:49:46;12.90;;;8.15;;
59302;SDS011;45074;52.764;6.896;2022-11-20T11:52:18;13.23;;;8.10;;
59302;SDS011;45074;52.764;6.896;2022-11-20T12:00:12;12.48;;;7.95;;
59302;SDS011;45074;52.764;6.896;2022-11-20T12:05:18;14.20;;;8.40;;
59302;SDS011;45074;52.764;6.896;2022-11-20T12:08:03;14.05;;;8.70;;
59302;SDS011;45074;52.764;6.896;2022-11-20T12:13:02;14.98;;;9.23;;
59302;SDS011;45074;52.764;6.896;2022-11-20T12:15:36;14.95;;;9.48;;
59302;SDS011;45074;52.764;6.896;2022-11-20T12:18:10;14.18;;;9.27;;
59302;SDS011;45074;52.764;6.896;2022-11-20T12:20:42;13.35;;;9.60;;
59302;SDS011;45074;52.764;6.896;2022-11-20T12:25:48;14.52;;;9.73;;
59302;SDS011;45074;52.764;6.896;2022-11-20T12:28:23;14.57;;;9.80;;
59302;SDS011;45074;52.764;6.896;2022-11-20T12:48:04;14.05;;;9.40;;
59302;SDS011;45074;52.764;6.896;2022-11-20T12:50:47;15.10;;;10.00;;
59302;SDS011;45074;52.764;6.896;2022-11-20T12:56:15;17.92;;;12.50;;
59302;SDS011;45074;52.764;6.896;2022-11-20T13:01:40;17.40;;;11.10;;
59302;SDS011;45074;52.764;6.896;2022-11-20T13:07:10;16.15;;;9.80;;
59302;SDS011;45074;52.764;6.896;2022-11-20T13:09:45;18.67;;;11.07;;
59302;SDS011;45074;52.764;6.896;2022-11-20T13:12:24;14.35;;;9.77;;
59302;SDS011;45074;52.764;6.896;2022-11-20T13:14:58;17.08;;;10.77;;
59302;SDS011;45074;52.764;6.896;2022-11-20T13:20:19;17.25;;;11.15;;
59302;SDS011;45074;52.764;6.896;2022-11-20T13:22:52;19.45;;;12.10;;
59302;SDS011;45074;52.764;6.896;2022-11-20T13:27:51;18.67;;;11.35;;
59302;SDS011;45074;52.764;6.896;2022-11-20T13:30:18;17.55;;;12.15;;
59302;SDS011;45074;52.764;6.896;2022-11-20T13:32:52;19.55;;;12.40;;
59302;SDS011;45074;52.764;6.896;2022-11-20T13:35:26;18.13;;;12.02;;
59302;SDS011;45074;52.764;6.896;2022-11-20T13:40:38;19.88;;;12.27;;
59302;SDS011;45074;52.764;6.896;2022-11-20T13:45:54;19.48;;;12.40;;
59302;SDS011;45074;52.764;6.896;2022-11-20T13:48:26;19.52;;;13.05;;
59302;SDS011;45074;52.764;6.896;2022-11-20T14:00:20;18.95;;;12.68;;
59302;SDS011;45074;52.764;6.896;2022-11-20T14:05:33;19.88;;;13.27;;
59302;SDS011;45074;52.764;6.896;2022-11-20T14:08:06;21.05;;;13.63;;
59302;SDS011;45074;52.764;6.896;2022-11-20T14:10:37;20.67;;;13.73;;
59302;SDS011;45074;52.764;6.896;2022-11-20T14:13:12;19.33;;;13.45;;
59302;SDS011;45074;52.764;6.896;2022-11-20T14:15:43;20.48;;;13.52;;
59302;SDS011;45074;52.764;6.896;2022-11-20T14:18:19;21.27;;;14.23;;
59302;SDS011;45074;52.764;6.896;2022-11-20T14:20:46;22.70;;;14.98;;
59302;SDS011;45074;52.764;6.896;2022-11-20T14:23:22;20.10;;;13.48;;
59302;SDS011;45074;52.764;6.896;2022-11-20T14:25:50;20.23;;;14.00;;
59302;SDS011;45074;52.764;6.896;2022-11-20T14:28:26;20.45;;;14.15;;
59302;SDS011;45074;52.764;6.896;2022-11-20T14:30:53;19.98;;;14.18;;
59302;SDS011;45074;52.764;6.896;2022-11-20T14:33:20;20.60;;;13.63;;
59302;SDS011;45074;52.764;6.896;2022-11-20T14:35:53;19.45;;;13.38;;
59302;SDS011;45074;52.764;6.896;2022-11-20T14:38:31;20.35;;;13.57;;
59302;SDS011;45074;52.764;6.896;2022-11-20T14:41:07;19.75;;;13.32;;
59302;SDS011;45074;52.764;6.896;2022-11-20T14:43:34;21.58;;;14.45;;
59302;SDS011;45074;52.764;6.896;2022-11-20T14:46:03;21.98;;;14.63;;
59302;SDS011;45074;52.764;6.896;2022-11-20T14:48:30;21.10;;;14.50;;
59302;SDS011;45074;52.764;6.896;2022-11-20T14:50:58;22.25;;;14.85;;
59302;SDS011;45074;52.764;6.896;2022-11-20T14:53:24;22.30;;;14.82;;
59302;SDS011;45074;52.764;6.896;2022-11-20T14:55:54;22.13;;;14.40;;
59302;SDS011;45074;52.764;6.896;2022-11-20T14:58:28;21.55;;;14.10;;
59302;SDS011;45074;52.764;6.896;2022-11-20T15:01:06;22.33;;;14.98;;
59302;SDS011;45074;52.764;6.896;2022-11-20T15:03:33;21.95;;;14.52;;
59302;SDS011;45074;52.764;6.896;2022-11-20T15:06:00;21.90;;;14.85;;
59302;SDS011;45074;52.764;6.896;2022-11-20T15:08:26;23.48;;;14.65;;
59302;SDS011;45074;52.764;6.896;2022-11-20T15:10:53;20.85;;;14.07;;
59302;SDS011;45074;52.764;6.896;2022-11-20T15:13:23;20.75;;;13.60;;
59302;SDS011;45074;52.764;6.896;2022-11-20T15:15:56;21.48;;;14.10;;
59302;SDS011;45074;52.764;6.896;2022-11-20T15:18:35;21.40;;;14.27;;
59302;SDS011;45074;52.764;6.896;2022-11-20T15:21:04;22.70;;;14.80;;
59302;SDS011;45074;52.764;6.896;2022-11-20T15:23:38;21.35;;;14.30;;
59302;SDS011;45074;52.764;6.896;2022-11-20T15:26:07;19.40;;;13.63;;
59302;SDS011;45074;52.764;6.896;2022-11-20T15:28:44;22.42;;;14.20;;
59302;SDS011;45074;52.764;6.896;2022-11-20T15:31:13;20.80;;;14.00;;
59302;SDS011;45074;52.764;6.896;2022-11-20T15:33:41;20.65;;;13.52;;
59302;SDS011;45074;52.764;6.896;2022-11-20T15:36:07;21.25;;;13.98;;
59302;SDS011;45074;52.764;6.896;2022-11-20T15:38:34;20.48;;;13.75;;
59302;SDS011;45074;52.764;6.896;2022-11-20T15:41:00;21.20;;;14.55;;
59302;SDS011;45074;52.764;6.896;2022-11-20T15:43:26;21.20;;;14.00;;
59302;SDS011;45074;52.764;6.896;2022-11-20T15:46:11;22.17;;;14.48;;
59302;SDS011;45074;52.764;6.896;2022-11-20T15:48:43;21.23;;;14.93;;
59302;SDS011;45074;52.764;6.896;2022-11-20T15:53:37;21.55;;;14.70;;
59302;SDS011;45074;52.764;6.896;2022-11-20T15:56:04;22.77;;;15.48;;
59302;SDS011;45074;52.764;6.896;2022-11-20T15:58:30;23.10;;;15.98;;
59302;SDS011;45074;52.764;6.896;2022-11-20T16:00:55;23.17;;;15.15;;
59302;SDS011;45074;52.764;6.896;2022-11-20T16:03:22;21.92;;;14.98;;
59302;SDS011;45074;52.764;6.896;2022-11-20T16:05:48;22.65;;;14.73;;
59302;SDS011;45074;52.764;6.896;2022-11-20T16:08:14;21.10;;;14.73;;
59302;SDS011;45074;52.764;6.896;2022-11-20T16:10:40;23.33;;;15.23;;
59302;SDS011;45074;52.764;6.896;2022-11-20T16:13:24;23.17;;;15.57;;
59302;SDS011;45074;52.764;6.896;2022-11-20T16:18:55;25.02;;;16.25;;